Time;durP1;ratioP1;P1;durP2;ratioP2;P2;SDS_P1;SDS_P2;PMS_P1;PMS_P2;Temp;Humidity;BMP_temperature;BMP_pressure;BME280_temperature;BME280_humidity;BME280_pressure;Samples;Min_cycle;Max_cycle;Signal;HPM_P1;HPM_P2
2023/12/20 00:01:41;;;;;;;79.20;14.93;;;7.60;98.10;;;;;;5002663;28;20097;-50
2023/12/20 00:04:07;;;;;;;66.25;14.57;;;7.60;98.20;;;;;;5003724;28;20033;-50
2023/12/20 00:06:32;;;;;;;75.53;14.88;;;7.60;98.20;;;;;;5002597;28;20026;-50
2023/12/20 00:08:58;;;;;;;69.07;14.27;;;7.60;98.20;;;;;;4986165;28;20034;-50
2023/12/20 00:11:24;;;;;;;77.38;16.13;;;7.60;98.20;;;;;;5003599;28;20019;-50
2023/12/20 00:13:49;;;;;;;75.18;16.65;;;7.60;98.10;;;;;;5002336;28;20049;-50
2023/12/20 00:16:15;;;;;;;64.38;14.20;;;7.50;98.10;;;;;;5003451;28;20023;-50
2023/12/20 00:18:41;;;;;;;85.57;16.05;;;7.60;98.10;;;;;;5003585;28;20060;-50
2023/12/20 00:21:06;;;;;;;71.80;15.52;;;7.60;98.10;;;;;;5003384;28;20030;-50
2023/12/20 00:23:32;;;;;;;70.82;14.80;;;7.60;98.10;;;;;;5002521;28;20035;-52
2023/12/20 00:25:57;;;;;;;81.18;15.63;;;7.60;98.10;;;;;;5005480;28;20386;-50
2023/12/20 00:28:23;;;;;;;62.85;14.75;;;7.50;98.10;;;;;;5006899;28;20046;-50
2023/12/20 00:30:49;;;;;;;79.13;15.13;;;7.50;98.20;;;;;;5006703;28;20043;-51
2023/12/20 00:33:14;;;;;;;58.47;14.07;;;7.50;98.10;;;;;;5005350;28;20031;-50
2023/12/20 00:35:40;;;;;;;80.10;14.02;;;7.50;98.20;;;;;;5006630;28;20029;-50
2023/12/20 00:38:06;;;;;;;80.90;13.63;;;7.50;98.20;;;;;;5005444;28;20038;-50
2023/12/20 00:40:33;;;;;;;59.35;14.98;;;7.50;98.10;;;;;;5006752;28;20192;-50
2023/12/20 00:42:58;;;;;;;72.18;16.67;;;7.50;98.20;;;;;;5007172;28;20090;-50
2023/12/20 00:45:24;;;;;;;75.75;15.23;;;7.50;98.20;;;;;;5005582;28;20026;-50
2023/12/20 00:47:49;;;;;;;65.03;13.32;;;7.50;98.20;;;;;;5006567;28;20037;-50
2023/12/20 00:50:16;;;;;;;63.97;13.48;;;7.50;98.20;;;;;;4973416;28;20546;-50
2023/12/20 00:52:41;;;;;;;57.80;13.95;;;7.50;98.20;;;;;;5006457;28;20035;-50
2023/12/20 00:55:07;;;;;;;61.38;13.07;;;7.50;98.20;;;;;;5005217;28;20033;-50
2023/12/20 00:57:33;;;;;;;58.05;12.85;;;7.50;98.20;;;;;;5004983;28;20072;-50
2023/12/20 00:59:59;;;;;;;54.42;12.25;;;7.50;98.20;;;;;;4988977;28;20030;-50
2023/12/20 01:02:24;;;;;;;66.93;13.40;;;7.50;98.20;;;;;;5005006;28;20033;-50
2023/12/20 01:04:50;;;;;;;57.95;13.15;;;7.50;98.20;;;;;;5005252;28;20030;-50
2023/12/20 01:07:15;;;;;;;49.75;12.32;;;7.50;98.20;;;;;;5006337;28;20030;-50
2023/12/20 01:09:41;;;;;;;49.50;12.52;;;7.50;98.30;;;;;;5004912;28;20050;-50
2023/12/20 01:12:07;;;;;;;62.20;14.00;;;7.50;98.20;;;;;;5006281;28;20050;-50
2023/12/20 01:14:32;;;;;;;45.22;12.25;;;7.50;98.20;;;;;;5004905;28;20039;-51
2023/12/20 01:16:58;;;;;;;66.15;12.65;;;7.50;98.20;;;;;;5004876;28;20039;-50
2023/12/20 01:19:24;;;;;;;59.17;13.15;;;7.40;98.20;;;;;;4972487;28;20026;-50
2023/12/20 01:21:50;;;;;;;58.08;11.48;;;7.40;98.20;;;;;;5005221;28;20023;-50
2023/12/20 01:24:15;;;;;;;51.40;11.82;;;7.40;98.30;;;;;;4972530;28;20394;-50
2023/12/20 01:26:42;;;;;;;52.38;12.50;;;7.40;98.30;;;;;;5005357;28;20030;-50
2023/12/20 01:29:07;;;;;;;46.13;11.52;;;7.40;98.30;;;;;;4988836;28;20030;-50
2023/12/20 01:31:35;;;;;;;51.72;11.90;;;7.40;98.30;;;;;;5004844;28;20042;-50
2023/12/20 01:34:01;;;;;;;45.97;12.52;;;7.40;98.30;;;;;;4988807;28;20057;-50
2023/12/20 01:36:26;;;;;;;44.30;11.32;;;7.40;98.30;;;;;;5004863;28;20419;-50
2023/12/20 01:38:52;;;;;;;35.35;11.05;;;7.40;98.30;;;;;;4988540;28;20034;-50
2023/12/20 01:41:18;;;;;;;38.80;10.55;;;7.40;98.40;;;;;;5004697;28;20496;-50
2023/12/20 01:43:43;;;;;;;45.90;10.60;;;7.40;98.40;;;;;;5005816;28;20038;-50
2023/12/20 01:46:09;;;;;;;60.97;12.18;;;7.40;98.40;;;;;;4988204;28;20026;-50
2023/12/20 01:48:34;;;;;;;40.17;11.00;;;7.40;98.40;;;;;;4972162;28;20023;-50
2023/12/20 01:51:00;;;;;;;48.53;12.65;;;7.40;98.30;;;;;;4988120;28;20030;-50
2023/12/20 01:53:26;;;;;;;52.00;11.35;;;7.30;98.40;;;;;;4988310;28;20042;-50
2023/12/20 01:55:52;;;;;;;43.10;11.75;;;7.30;98.40;;;;;;5004520;28;20105;-50
2023/12/20 01:58:18;;;;;;;45.65;10.70;;;7.40;98.40;;;;;;4987929;28;20050;-50
2023/12/20 02:00:43;;;;;;;50.70;11.65;;;7.40;98.40;;;;;;4987986;28;20026;-50
2023/12/20 02:03:09;;;;;;;44.15;11.18;;;7.30;98.30;;;;;;4987805;28;20030;-50
2023/12/20 02:05:35;;;;;;;46.78;11.30;;;7.40;98.30;;;;;;5003995;28;20054;-50
2023/12/20 02:08:00;;;;;;;44.40;10.60;;;7.30;98.30;;;;;;5005195;28;20038;-49
2023/12/20 02:10:26;;;;;;;37.42;10.05;;;7.40;98.40;;;;;;5005351;28;20036;-50
2023/12/20 02:12:52;;;;;;;34.83;9.38;;;7.30;98.40;;;;;;4987838;28;20050;-50
2023/12/20 02:15:17;;;;;;;34.78;11.02;;;7.30;98.40;;;;;;5003841;28;20516;-50
2023/12/20 02:17:43;;;;;;;32.72;9.40;;;7.30;98.40;;;;;;4987581;28;20038;-50
2023/12/20 02:20:09;;;;;;;41.50;10.80;;;7.30;98.40;;;;;;4987784;28;20019;-50
2023/12/20 02:22:34;;;;;;;42.80;10.13;;;7.30;98.40;;;;;;5003916;28;20026;-51
2023/12/20 02:25:00;;;;;;;38.60;10.35;;;7.30;98.40;;;;;;5003737;28;20023;-50
2023/12/20 02:27:26;;;;;;;45.75;10.23;;;7.30;98.40;;;;;;4987651;28;20034;-50
2023/12/20 02:29:51;;;;;;;42.58;10.43;;;7.30;98.40;;;;;;4987468;28;20060;-50
2023/12/20 02:32:21;;;;;;;44.45;10.00;;;7.30;98.40;;;;;;5003741;28;20037;-50
2023/12/20 02:34:49;;;;;;;41.75;11.02;;;7.30;98.40;;;;;;4987550;28;20037;-50
2023/12/20 02:37:15;;;;;;;36.05;10.07;;;7.30;98.40;;;;;;4987440;28;20031;-50
2023/12/20 02:39:40;;;;;;;36.83;9.00;;;7.30;98.50;;;;;;5003705;28;20037;-50
2023/12/20 02:42:06;;;;;;;34.33;9.77;;;7.30;98.50;;;;;;5003425;28;20026;-50
2023/12/20 02:44:31;;;;;;;34.00;9.13;;;7.30;98.50;;;;;;5003242;28;20052;-50
2023/12/20 02:46:57;;;;;;;31.63;9.57;;;7.30;98.50;;;;;;5002761;28;20573;-50
2023/12/20 02:49:23;;;;;;;30.80;10.25;;;7.30;98.50;;;;;;5004617;28;20060;-50
2023/12/20 02:51:48;;;;;;;35.33;8.95;;;7.30;98.60;;;;;;5003572;28;20030;-50
2023/12/20 02:54:14;;;;;;;33.33;8.90;;;7.30;98.60;;;;;;5003488;28;20064;-50
2023/12/20 02:56:39;;;;;;;28.33;8.80;;;7.30;98.60;;;;;;4987135;28;20026;-50
2023/12/20 02:59:05;;;;;;;32.58;9.38;;;7.20;98.70;;;;;;5003392;28;20094;-50
2023/12/20 03:01:31;;;;;;;26.67;8.75;;;7.30;98.70;;;;;;5004675;28;20023;-50
2023/12/20 03:03:57;;;;;;;35.47;9.88;;;7.30;98.70;;;;;;4987046;28;20026;-50
2023/12/20 03:06:22;;;;;;;35.47;8.75;;;7.30;98.70;;;;;;4987017;28;20019;-50
2023/12/20 03:08:48;;;;;;;38.90;10.05;;;7.30;98.80;;;;;;5004692;28;20034;-50
2023/12/20 03:11:13;;;;;;;37.03;8.48;;;7.30;98.80;;;;;;5005030;28;20072;-50
2023/12/20 03:13:39;;;;;;;30.23;9.20;;;7.20;98.80;;;;;;5004926;28;20030;-50
2023/12/20 03:16:11;;;;;;;34.03;8.05;;;7.20;98.90;;;;;;5004889;28;20082;-51
2023/12/20 03:18:37;;;;;;;35.00;9.23;;;7.20;98.90;;;;;;5005496;28;20086;-49
2023/12/20 03:21:03;;;;;;;28.90;9.38;;;7.20;98.80;;;;;;5004378;28;20023;-50
2023/12/20 03:23:30;;;;;;;30.52;9.15;;;7.30;98.80;;;;;;4986743;28;20038;-50
2023/12/20 03:25:56;;;;;;;25.88;8.65;;;7.20;98.90;;;;;;5002988;28;20030;-50
2023/12/20 03:28:22;;;;;;;27.88;9.02;;;7.20;98.90;;;;;;5003004;28;20038;-50
2023/12/20 03:30:48;;;;;;;26.90;8.90;;;7.20;99.00;;;;;;4986596;28;20137;-50
2023/12/20 03:33:14;;;;;;;31.55;9.85;;;7.20;99.00;;;;;;5004119;28;20034;-50
2023/12/20 03:35:39;;;;;;;28.00;9.93;;;7.20;99.00;;;;;;5002858;28;20053;-50
2023/12/20 03:38:05;;;;;;;31.02;8.60;;;7.30;99.00;;;;;;5003770;28;20042;-50
2023/12/20 03:40:30;;;;;;;32.60;10.70;;;7.20;99.10;;;;;;5003893;28;20022;-58
2023/12/20 03:42:56;;;;;;;37.90;11.27;;;7.20;99.10;;;;;;5002659;28;20035;-58
2023/12/20 03:45:22;;;;;;;24.85;9.45;;;7.20;99.00;;;;;;5003901;28;20034;-59
2023/12/20 03:47:48;;;;;;;24.30;9.55;;;7.20;99.10;;;;;;5003843;28;20039;-59
2023/12/20 03:50:14;;;;;;;29.85;9.55;;;7.20;99.10;;;;;;5003775;28;20026;-59
2023/12/20 03:52:39;;;;;;;27.80;9.82;;;7.20;99.10;;;;;;4986300;28;20034;-59
2023/12/20 03:55:05;;;;;;;23.08;9.52;;;7.20;99.20;;;;;;5003748;28;20026;-58
2023/12/20 03:57:31;;;;;;;18.83;8.65;;;7.20;99.20;;;;;;5003426;28;20027;-59
2023/12/20 03:59:56;;;;;;;27.00;8.30;;;7.20;99.20;;;;;;4988816;28;20030;-59
2023/12/20 04:02:22;;;;;;;25.27;9.05;;;7.20;99.20;;;;;;5005954;28;20030;-59
2023/12/20 04:04:47;;;;;;;29.98;9.63;;;7.20;99.20;;;;;;5005972;28;20061;-59
2023/12/20 04:07:13;;;;;;;33.35;10.52;;;7.30;99.30;;;;;;5006051;28;20492;-59
2023/12/20 04:09:40;;;;;;;23.70;9.90;;;7.20;99.20;;;;;;5005847;28;20034;-59
2023/12/20 04:12:06;;;;;;;23.02;8.43;;;7.30;99.20;;;;;;5005572;28;20031;-59
2023/12/20 04:14:32;;;;;;;27.33;8.60;;;7.20;99.40;;;;;;5007282;28;20394;-59
2023/12/20 04:16:57;;;;;;;22.23;8.27;;;7.20;99.80;;;;;;5005576;28;20037;-58
2023/12/20 04:19:23;;;;;;;26.05;9.25;;;7.30;99.90;;;;;;4989408;28;20080;-59
2023/12/20 04:21:48;;;;;;;23.40;8.38;;;7.30;99.90;;;;;;4989405;28;20022;-58
2023/12/20 04:24:14;;;;;;;21.55;9.10;;;7.30;99.90;;;;;;5005536;28;20057;-59
2023/12/20 04:26:39;;;;;;;27.23;9.25;;;7.40;99.90;;;;;;5005534;28;20037;-59
2023/12/20 04:29:05;;;;;;;22.42;8.82;;;7.30;99.90;;;;;;5005291;28;20041;-59
2023/12/20 04:31:30;;;;;;;29.35;9.00;;;7.30;99.90;;;;;;5005678;28;20045;-59
2023/12/20 04:33:56;;;;;;;25.30;9.00;;;7.30;99.90;;;;;;5005486;28;20080;-59
2023/12/20 04:36:22;;;;;;;25.67;9.40;;;7.30;99.90;;;;;;5006714;28;20041;-59
2023/12/20 04:38:47;;;;;;;22.55;9.55;;;7.30;99.90;;;;;;4989339;28;20031;-59
2023/12/20 04:41:15;;;;;;;21.38;9.38;;;7.30;99.90;;;;;;5005503;28;20091;-59
2023/12/20 04:43:41;;;;;;;21.05;9.30;;;7.40;99.90;;;;;;5006681;28;20057;-59
2023/12/20 04:46:07;;;;;;;27.15;9.15;;;7.30;99.90;;;;;;5006743;28;20031;-59
2023/12/20 04:48:32;;;;;;;25.20;10.07;;;7.30;99.90;;;;;;5005182;28;20041;-50
2023/12/20 04:50:58;;;;;;;23.80;9.55;;;7.30;99.90;;;;;;5006543;28;20030;-50
2023/12/20 04:53:23;;;;;;;29.15;9.82;;;7.40;99.90;;;;;;4972816;28;20087;-50
2023/12/20 04:55:49;;;;;;;22.23;9.50;;;7.30;99.90;;;;;;5006458;28;20105;-50
2023/12/20 04:58:14;;;;;;;23.58;9.93;;;7.30;99.90;;;;;;5005214;28;20057;-50
2023/12/20 05:00:40;;;;;;;27.77;9.70;;;7.30;99.90;;;;;;5006898;28;20059;-51
2023/12/20 05:03:06;;;;;;;23.63;9.35;;;7.30;99.90;;;;;;5005166;28;20034;-50
2023/12/20 05:05:31;;;;;;;16.65;9.00;;;7.30;99.90;;;;;;5006429;28;20057;-50
2023/12/20 05:07:57;;;;;;;23.33;10.98;;;7.30;99.90;;;;;;5006339;28;20037;-50
2023/12/20 05:10:23;;;;;;;30.17;10.65;;;7.40;99.90;;;;;;5003964;28;20034;-50
2023/12/20 05:12:48;;;;;;;24.83;10.50;;;7.30;99.90;;;;;;5004811;28;20041;-50
2023/12/20 05:15:14;;;;;;;23.92;10.73;;;7.30;99.90;;;;;;4988529;28;20038;-49
2023/12/20 05:17:39;;;;;;;21.10;10.90;;;7.30;99.90;;;;;;5006198;28;20035;-50
2023/12/20 05:20:06;;;;;;;20.40;10.25;;;7.30;99.90;;;;;;5004773;28;20027;-50
2023/12/20 05:22:31;;;;;;;17.45;10.80;;;7.30;99.90;;;;;;5006054;28;20023;-50
2023/12/20 05:24:57;;;;;;;20.70;9.77;;;7.40;99.90;;;;;;5006043;28;20063;-50
2023/12/20 05:27:22;;;;;;;21.92;9.73;;;7.30;99.90;;;;;;5005969;28;20060;-50
2023/12/20 05:29:48;;;;;;;21.55;9.88;;;7.30;99.90;;;;;;5004296;28;20044;-50
2023/12/20 05:32:14;;;;;;;25.45;10.38;;;7.30;99.90;;;;;;5006004;28;20076;-50
2023/12/20 05:34:39;;;;;;;25.33;12.57;;;7.40;99.90;;;;;;5006113;28;20035;-50
2023/12/20 05:37:05;;;;;;;19.85;9.52;;;7.30;99.90;;;;;;5004595;28;20490;-50
2023/12/20 05:39:30;;;;;;;21.70;10.25;;;7.30;99.90;;;;;;5004513;28;20030;-50
2023/12/20 05:41:56;;;;;;;20.08;10.90;;;7.30;99.90;;;;;;5005897;28;20028;-50
2023/12/20 05:44:22;;;;;;;19.25;9.95;;;7.30;99.90;;;;;;5004612;28;20080;-50
2023/12/20 05:46:47;;;;;;;15.90;9.57;;;7.40;99.90;;;;;;5005728;28;20023;-50
2023/12/20 05:49:13;;;;;;;15.38;9.15;;;7.30;99.90;;;;;;4988254;28;20101;-51
2023/12/20 05:51:39;;;;;;;19.02;9.50;;;7.40;99.90;;;;;;5005573;28;20033;-50
2023/12/20 05:54:04;;;;;;;17.10;9.48;;;7.30;99.90;;;;;;5005506;28;20039;-50
2023/12/20 05:56:30;;;;;;;19.77;9.18;;;7.40;99.90;;;;;;5004120;28;20023;-50
2023/12/20 05:58:56;;;;;;;18.65;9.95;;;7.30;99.90;;;;;;5005406;28;20046;-50
2023/12/20 06:01:21;;;;;;;19.13;9.18;;;7.30;99.90;;;;;;4988102;28;20091;-50
2023/12/20 06:03:47;;;;;;;15.45;8.50;;;7.40;99.90;;;;;;5004762;28;20042;-50
2023/12/20 06:06:12;;;;;;;19.17;9.05;;;7.40;99.90;;;;;;5015699;28;20025;-50
2023/12/20 06:08:38;;;;;;;20.95;8.32;;;7.40;99.90;;;;;;5003589;28;20034;-50
2023/12/20 06:11:05;;;;;;;17.92;8.07;;;7.40;99.90;;;;;;5004094;28;20318;-50
2023/12/20 06:13:30;;;;;;;15.68;8.27;;;7.40;99.90;;;;;;4987867;28;20038;-50
2023/12/20 06:15:56;;;;;;;15.52;8.10;;;7.40;99.90;;;;;;5003677;28;20068;-50
2023/12/20 06:18:22;;;;;;;15.68;7.45;;;7.40;99.90;;;;;;5004670;28;20038;-50
2023/12/20 06:20:48;;;;;;;15.52;7.90;;;7.40;99.90;;;;;;5003944;28;20079;-50
2023/12/20 06:23:13;;;;;;;16.40;7.88;;;7.40;99.90;;;;;;5003582;28;20096;-50
2023/12/20 06:25:39;;;;;;;12.90;7.07;;;7.40;99.90;;;;;;5002764;28;20027;-50
2023/12/20 06:28:05;;;;;;;12.30;7.25;;;7.40;99.90;;;;;;5003670;28;20034;-50
2023/12/20 06:30:32;;;;;;;12.00;7.00;;;7.40;99.90;;;;;;4987345;28;20031;-50
2023/12/20 06:32:58;;;;;;;13.52;7.20;;;7.40;99.90;;;;;;5003414;28;20164;-50
2023/12/20 06:35:24;;;;;;;16.52;8.05;;;7.40;99.90;;;;;;5004831;28;20022;-50
2023/12/20 06:37:49;;;;;;;12.93;7.18;;;7.40;99.90;;;;;;5004553;28;20039;-50
2023/12/20 06:40:15;;;;;;;15.05;7.65;;;7.40;99.90;;;;;;5004920;28;20023;-50
2023/12/20 06:42:41;;;;;;;13.45;6.75;;;7.40;99.90;;;;;;5003351;28;20033;-50
2023/12/20 06:45:07;;;;;;;13.13;7.00;;;7.40;99.90;;;;;;5003192;28;20038;-50
2023/12/20 06:47:32;;;;;;;14.75;7.75;;;7.40;99.90;;;;;;5004301;28;20026;-50
2023/12/20 06:49:58;;;;;;;10.93;6.80;;;7.40;99.90;;;;;;5003737;28;20022;-50
2023/12/20 06:52:24;;;;;;;17.98;6.75;;;7.40;99.90;;;;;;5002691;28;20407;-50
2023/12/20 06:54:49;;;;;;;15.55;7.10;;;7.40;99.90;;;;;;5004307;28;20089;-50
2023/12/20 06:57:15;;;;;;;13.00;6.47;;;7.40;99.90;;;;;;5003025;28;20033;-49
2023/12/20 06:59:41;;;;;;;15.80;6.05;;;7.40;99.90;;;;;;5003067;28;20075;-50
2023/12/20 07:02:06;;;;;;;11.90;6.90;;;7.50;99.90;;;;;;5059508;28;20050;-50
2023/12/20 07:04:32;;;;;;;14.57;6.60;;;7.40;99.90;;;;;;5004268;28;20034;-50
2023/12/20 07:07:00;;;;;;;17.42;5.68;;;7.50;99.90;;;;;;5004281;28;20026;-50
2023/12/20 07:09:26;;;;;;;12.32;5.68;;;7.50;99.90;;;;;;5004027;28;20067;-50
2023/12/20 07:11:51;;;;;;;8.80;5.13;;;7.40;99.90;;;;;;5002559;28;20038;-50
2023/12/20 07:14:17;;;;;;;11.10;5.45;;;7.40;99.90;;;;;;5002867;28;20038;-50
2023/12/20 07:16:43;;;;;;;8.60;5.50;;;7.50;99.90;;;;;;5003649;28;20095;-50
2023/12/20 07:19:08;;;;;;;12.93;5.70;;;7.40;99.90;;;;;;5004042;28;20022;-50
2023/12/20 07:21:34;;;;;;;11.82;5.60;;;7.50;99.90;;;;;;5002987;28;20022;-50
2023/12/20 07:23:59;;;;;;;10.13;5.88;;;7.50;99.90;;;;;;5002247;28;20026;-50
2023/12/20 07:26:25;;;;;;;8.88;5.43;;;7.50;99.90;;;;;;5003541;28;20033;-50
2023/12/20 07:28:50;;;;;;;7.47;4.78;;;7.50;99.90;;;;;;5002269;28;20031;-50
2023/12/20 07:31:16;;;;;;;12.88;5.03;;;7.50;99.90;;;;;;5028486;28;20106;-50
2023/12/20 07:33:42;;;;;;;9.00;5.22;;;7.50;99.90;;;;;;5009913;28;20030;-50
2023/12/20 07:36:07;;;;;;;7.28;4.75;;;7.50;99.90;;;;;;5006975;28;20031;-50
2023/12/20 07:38:33;;;;;;;8.57;4.70;;;7.50;99.90;;;;;;5009631;28;20398;-50
2023/12/20 07:40:59;;;;;;;6.65;4.50;;;7.50;99.90;;;;;;5007650;28;20031;-50
2023/12/20 07:43:24;;;;;;;8.43;5.00;;;7.50;99.90;;;;;;4992313;28;20026;-50
2023/12/20 07:45:50;;;;;;;10.75;5.03;;;7.50;99.90;;;;;;5012635;28;20018;-50
2023/12/20 07:48:16;;;;;;;8.70;4.60;;;7.50;99.90;;;;;;4994073;28;20042;-50
2023/12/20 07:50:42;;;;;;;6.13;4.18;;;7.50;99.90;;;;;;5012870;28;20042;-50
2023/12/20 07:53:07;;;;;;;7.18;4.07;;;7.50;99.90;;;;;;5004986;28;20030;-50
2023/12/20 07:55:34;;;;;;;6.97;4.70;;;7.50;99.90;;;;;;5010114;28;20116;-50
2023/12/20 07:57:59;;;;;;;8.55;4.57;;;7.50;99.90;;;;;;4999794;28;20052;-50
2023/12/20 08:00:25;;;;;;;8.15;4.22;;;7.50;99.90;;;;;;5012362;28;20022;-50
2023/12/20 08:02:51;;;;;;;9.55;4.18;;;7.60;99.90;;;;;;5004361;28;20136;-50
2023/12/20 08:05:16;;;;;;;10.88;4.30;;;7.50;99.90;;;;;;5011509;28;20030;-50
2023/12/20 08:07:42;;;;;;;7.47;4.13;;;7.50;99.90;;;;;;5007256;28;20494;-50
2023/12/20 08:10:08;;;;;;;7.80;3.92;;;7.60;99.90;;;;;;5003615;28;20030;-50
2023/12/20 08:12:35;;;;;;;11.35;3.85;;;7.60;99.90;;;;;;5013892;28;20037;-50
2023/12/20 08:15:02;;;;;;;5.55;3.90;;;7.60;99.90;;;;;;5020995;28;20038;-50
2023/12/20 08:17:27;;;;;;;11.98;3.78;;;7.60;99.90;;;;;;5006139;28;20060;-50
2023/12/20 08:19:53;;;;;;;7.82;3.88;;;7.60;99.90;;;;;;5008809;28;20026;-50
2023/12/20 08:22:18;;;;;;;9.55;3.60;;;7.60;99.90;;;;;;5002420;28;20022;-51
2023/12/20 08:24:44;;;;;;;10.07;4.57;;;7.60;99.90;;;;;;5013686;28;20033;-50
2023/12/20 08:27:09;;;;;;;15.93;4.80;;;7.60;99.90;;;;;;5008748;28;20355;-50
2023/12/20 08:29:35;;;;;;;11.60;4.80;;;7.60;99.90;;;;;;5013268;28;20037;-50
2023/12/20 08:32:01;;;;;;;15.63;4.30;;;7.60;99.90;;;;;;5029652;28;20034;-50
2023/12/20 08:34:26;;;;;;;19.10;4.80;;;7.60;99.90;;;;;;5003784;28;20038;-50
2023/12/20 08:36:52;;;;;;;7.38;3.63;;;7.60;99.90;;;;;;5005891;28;20045;-50
2023/12/20 08:39:18;;;;;;;10.15;4.20;;;7.60;99.90;;;;;;5011277;28;20041;-50
2023/12/20 08:41:43;;;;;;;19.92;5.03;;;7.70;99.90;;;;;;5019532;28;20113;-50
2023/12/20 08:44:09;;;;;;;62.20;8.25;;;7.70;99.90;;;;;;5006517;28;20042;-50
2023/12/20 08:46:35;;;;;;;31.70;6.38;;;7.70;99.90;;;;;;5027774;28;20077;-50
2023/12/20 08:49:01;;;;;;;114.93;11.00;;;7.70;99.90;;;;;;5011048;28;20034;-50
2023/12/20 08:51:27;;;;;;;185.23;15.25;;;7.70;99.90;;;;;;5000735;28;20637;-50
2023/12/20 08:53:53;;;;;;;91.07;9.00;;;7.80;99.90;;;;;;5012613;28;20034;-50
2023/12/20 08:56:18;;;;;;;50.92;8.05;;;7.80;99.90;;;;;;5032984;28;20029;-50
2023/12/20 08:58:45;;;;;;;40.03;6.35;;;7.80;99.90;;;;;;4993243;28;20045;-50
2023/12/20 09:01:11;;;;;;;107.72;11.13;;;7.80;99.90;;;;;;5008331;28;20054;-50
2023/12/20 09:03:36;;;;;;;81.53;8.70;;;7.80;99.90;;;;;;5009572;28;20030;-50
2023/12/20 09:06:02;;;;;;;43.75;6.68;;;7.90;99.90;;;;;;5017878;28;20030;-50
2023/12/20 09:08:27;;;;;;;40.42;6.47;;;7.90;99.90;;;;;;5012986;28;20117;-50
2023/12/20 09:10:53;;;;;;;73.13;10.20;;;7.90;99.90;;;;;;5032140;28;20087;-50
2023/12/20 09:13:20;;;;;;;76.35;11.63;;;7.80;99.90;;;;;;5019411;28;20506;-50
2023/12/20 09:15:46;;;;;;;35.17;7.68;;;7.90;99.90;;;;;;5013187;28;20030;-50
2023/12/20 09:18:11;;;;;;;52.58;7.45;;;7.90;99.90;;;;;;4988165;28;20163;-50
2023/12/20 09:20:37;;;;;;;46.35;8.32;;;7.90;99.90;;;;;;5014010;28;20037;-49
2023/12/20 09:23:02;;;;;;;44.17;8.15;;;7.90;99.90;;;;;;5005865;28;20038;-50
2023/12/20 09:25:29;;;;;;;46.30;7.38;;;7.90;99.90;;;;;;5013497;28;20018;-50
2023/12/20 09:27:55;;;;;;;91.28;9.65;;;8.00;99.90;;;;;;4991152;28;20060;-50
2023/12/20 09:30:21;;;;;;;44.15;8.15;;;7.90;99.90;;;;;;5005794;28;20194;-50
2023/12/20 09:32:46;;;;;;;36.90;6.70;;;8.00;99.90;;;;;;5012648;28;20030;-50
2023/12/20 09:35:12;;;;;;;44.53;7.45;;;7.90;99.90;;;;;;5021850;28;20035;-50
2023/12/20 09:37:37;;;;;;;34.88;6.05;;;8.00;99.90;;;;;;5014936;28;20062;-50
2023/12/20 09:40:04;;;;;;;29.90;6.45;;;8.00;99.90;;;;;;5013426;28;20478;-50
2023/12/20 09:42:52;;;;;;;35.20;6.38;;;8.00;99.90;;;;;;5005374;28;20027;-50
2023/12/20 09:45:19;;;;;;;28.70;4.93;;;8.00;99.90;;;;;;5015725;28;20456;-50
2023/12/20 09:47:45;;;;;;;39.97;6.32;;;8.00;99.90;;;;;;4993159;28;20041;-50
2023/12/20 09:50:10;;;;;;;54.35;8.55;;;8.00;99.90;;;;;;5010605;28;20026;-50
2023/12/20 09:52:36;;;;;;;33.80;5.95;;;8.10;99.90;;;;;;4993469;28;20042;-50
2023/12/20 09:55:05;;;;;;;36.10;6.75;;;8.00;99.90;;;;;;5013143;28;20030;-50
2023/12/20 09:57:31;;;;;;;44.05;6.68;;;8.10;99.90;;;;;;5006543;28;20056;-50
2023/12/20 09:59:57;;;;;;;38.45;5.80;;;8.10;99.90;;;;;;5009928;28;20029;-50
2023/12/20 10:02:25;;;;;;;49.35;8.57;;;8.10;99.90;;;;;;4997544;28;20022;-50
2023/12/20 10:04:50;;;;;;;294.98;23.77;;;8.10;99.90;;;;;;5029530;28;20363;-50
2023/12/20 10:07:16;;;;;;;65.82;9.77;;;8.10;99.90;;;;;;5026045;28;20089;-50
2023/12/20 10:09:42;;;;;;;39.38;6.63;;;8.10;99.90;;;;;;5005961;28;20050;-50
2023/12/20 10:12:08;;;;;;;55.75;7.50;;;8.10;99.90;;;;;;5003217;28;20061;-50
2023/12/20 10:14:33;;;;;;;69.85;7.15;;;8.20;99.90;;;;;;5006046;28;20065;-50
2023/12/20 10:17:03;;;;;;;43.03;6.72;;;8.20;99.90;;;;;;5008230;28;20030;-50
2023/12/20 10:19:29;;;;;;;40.75;7.55;;;8.20;99.90;;;;;;4985156;28;20039;-50
2023/12/20 10:21:54;;;;;;;42.92;6.72;;;8.20;99.90;;;;;;5022765;28;20026;-50
2023/12/20 10:24:20;;;;;;;37.55;6.50;;;8.20;99.90;;;;;;5006820;28;20037;-50
2023/12/20 10:26:46;;;;;;;82.40;8.90;;;8.30;99.90;;;;;;5006971;28;20340;-50
2023/12/20 10:29:11;;;;;;;88.88;10.93;;;8.20;99.90;;;;;;5007085;28;20038;-50
2023/12/20 10:31:38;;;;;;;66.68;9.20;;;8.30;99.90;;;;;;5026225;28;20033;-48
2023/12/20 10:34:04;;;;;;;53.70;8.57;;;8.30;99.90;;;;;;5018470;28;20057;-50
2023/12/20 10:36:31;;;;;;;66.20;9.82;;;8.30;99.90;;;;;;5048254;28;20022;-50
2023/12/20 10:38:57;;;;;;;64.95;9.80;;;8.40;99.90;;;;;;5010060;28;20271;-50
2023/12/20 10:41:30;;;;;;;102.75;10.88;;;8.30;99.90;;;;;;5031864;28;20046;-50
2023/12/20 10:44:02;;;;;;;169.43;14.30;;;8.40;99.90;;;;;;5036132;28;20485;-50
2023/12/20 10:46:29;;;;;;;103.25;11.57;;;8.40;99.90;;;;;;5017511;28;20030;-50
2023/12/20 10:48:55;;;;;;;134.95;12.82;;;8.40;99.90;;;;;;5011301;28;20027;-50
2023/12/20 10:51:21;;;;;;;161.57;15.38;;;8.50;99.90;;;;;;4986526;28;20090;-50
2023/12/20 10:53:50;;;;;;;106.35;12.57;;;8.40;99.90;;;;;;5007731;28;20037;-50
2023/12/20 10:56:17;;;;;;;130.15;13.90;;;8.50;99.90;;;;;;5002481;28;20031;-50
2023/12/20 10:58:43;;;;;;;147.15;14.55;;;8.50;99.90;;;;;;5004552;28;20128;-50
2023/12/20 11:01:09;;;;;;;106.18;12.25;;;8.60;99.90;;;;;;4990123;28;20036;-50
2023/12/20 11:03:37;;;;;;;130.00;12.32;;;8.60;99.90;;;;;;5000771;28;20026;-50
2023/12/20 11:06:06;;;;;;;230.27;21.30;;;8.60;99.90;;;;;;5002017;28;20018;-51
2023/12/20 11:08:36;;;;;;;153.40;16.58;;;8.70;99.90;;;;;;5011144;28;20094;-51
2023/12/20 11:11:23;;;;;;;220.95;19.35;;;8.70;99.90;;;;;;4988740;28;20026;-50
2023/12/20 11:14:08;;;;;;;146.95;16.70;;;8.70;99.90;;;;;;5001657;28;20090;-50
2023/12/20 11:16:37;;;;;;;147.73;14.17;;;8.70;99.90;;;;;;5002130;28;20030;-50
2023/12/20 11:19:06;;;;;;;176.65;16.48;;;8.80;99.90;;;;;;4994740;28;20094;-51
2023/12/20 11:21:32;;;;;;;118.40;13.50;;;8.80;99.90;;;;;;5001524;28;20026;-50
2023/12/20 11:23:57;;;;;;;148.85;15.90;;;8.80;99.90;;;;;;5002406;28;20171;-50
2023/12/20 11:26:28;;;;;;;104.70;13.50;;;8.90;99.90;;;;;;5006223;28;20018;-50
2023/12/20 11:28:54;;;;;;;163.35;16.20;;;8.90;99.90;;;;;;4985597;28;20030;-50
2023/12/20 11:31:19;;;;;;;203.32;19.77;;;8.90;99.90;;;;;;5005187;28;20491;-51
2023/12/20 11:33:48;;;;;;;86.25;11.95;;;8.90;99.90;;;;;;5004327;28;20038;-50
2023/12/20 11:36:14;;;;;;;102.20;12.27;;;8.90;99.90;;;;;;4988441;28;20077;-50
2023/12/20 11:38:59;;;;;;;71.97;10.52;;;8.90;99.90;;;;;;4992220;28;20039;-50
2023/12/20 11:41:25;;;;;;;119.32;11.57;;;8.90;99.90;;;;;;5007855;28;20026;-50
2023/12/20 11:43:53;;;;;;;176.00;19.38;;;8.90;99.90;;;;;;4999758;28;20038;-51
2023/12/20 11:46:19;;;;;;;156.95;13.98;;;8.90;99.90;;;;;;5008238;28;20029;-50
2023/12/20 11:48:44;;;;;;;122.15;13.52;;;9.00;99.90;;;;;;4999207;28;20038;-51
2023/12/20 11:51:13;;;;;;;106.97;11.63;;;8.90;99.90;;;;;;4983854;28;20026;-50
2023/12/20 11:53:39;;;;;;;119.47;12.57;;;8.90;99.90;;;;;;4999774;28;20070;-51
2023/12/20 11:56:08;;;;;;;178.70;17.65;;;9.00;99.90;;;;;;5004122;28;20030;-51
2023/12/20 11:58:34;;;;;;;163.65;13.35;;;8.90;99.90;;;;;;5020838;28;20091;-51
2023/12/20 12:00:59;;;;;;;116.30;12.27;;;8.90;99.90;;;;;;5000862;28;20466;-51
2023/12/20 12:03:25;;;;;;;75.22;9.43;;;8.90;99.90;;;;;;5036086;28;20053;-51
2023/12/20 12:05:51;;;;;;;86.35;8.73;;;8.90;99.90;;;;;;5010562;28;20393;-50
2023/12/20 12:08:19;;;;;;;92.13;10.38;;;8.90;99.90;;;;;;5004423;28;20094;-50
2023/12/20 12:10:45;;;;;;;88.45;10.57;;;8.90;99.90;;;;;;5008371;28;20026;-50
2023/12/20 12:13:11;;;;;;;71.70;9.55;;;8.90;99.90;;;;;;5003128;28;20041;-50
2023/12/20 12:15:37;;;;;;;75.93;7.57;;;8.90;99.90;;;;;;5001888;28;20371;-51
2023/12/20 12:18:03;;;;;;;55.08;7.65;;;8.90;99.90;;;;;;5000846;28;20030;-50
2023/12/20 12:20:28;;;;;;;44.90;7.40;;;8.90;99.90;;;;;;5003042;28;20185;-50
2023/12/20 12:22:59;;;;;;;68.10;9.15;;;9.00;99.90;;;;;;5003502;28;20038;-50
2023/12/20 12:25:25;;;;;;;47.95;6.93;;;9.00;99.90;;;;;;5004039;28;20097;-51
2023/12/20 12:27:51;;;;;;;49.97;7.28;;;9.00;99.90;;;;;;4985924;28;20039;-51
2023/12/20 12:30:18;;;;;;;55.30;6.70;;;9.00;99.90;;;;;;5004292;28;20037;-50
2023/12/20 12:32:44;;;;;;;50.80;6.80;;;9.00;99.90;;;;;;4988824;28;20545;-50
2023/12/20 12:35:10;;;;;;;59.63;7.75;;;9.00;99.90;;;;;;4994274;28;20485;-51
2023/12/20 12:37:38;;;;;;;64.78;8.13;;;9.00;99.90;;;;;;5003078;28;20034;-50